sensor_id;sensor_type;location;lat;lon;timestamp;pressure;altitude;pressure_sealevel;temperature;humidity
48517;BME280;34310;51.904;4.256;2023-02-14T00:01:10;103548.38;;;15.75;59.46
48517;BME280;34310;51.904;4.256;2023-02-14T00:03:38;103550.84;;;15.74;59.60
48517;BME280;34310;51.904;4.256;2023-02-14T00:06:11;103544.72;;;15.73;59.63
48517;BME280;34310;51.904;4.256;2023-02-14T00:08:39;103541.97;;;15.72;59.58
48517;BME280;34310;51.904;4.256;2023-02-14T00:11:11;103549.78;;;15.72;59.66
48517;BME280;34310;51.904;4.256;2023-02-14T00:13:39;103544.28;;;15.69;59.53
48517;BME280;34310;51.904;4.256;2023-02-14T00:16:27;103547.66;;;15.68;59.50
48517;BME280;34310;51.904;4.256;2023-02-14T00:18:54;103538.03;;;15.67;59.69
48517;BME280;34310;51.904;4.256;2023-02-14T00:21:35;103537.09;;;15.66;59.69
48517;BME280;34310;51.904;4.256;2023-02-14T00:24:03;103537.88;;;15.65;59.61
48517;BME280;34310;51.904;4.256;2023-02-14T00:26:32;103533.44;;;15.64;59.49
48517;BME280;34310;51.904;4.256;2023-02-14T00:28:59;103532.53;;;15.64;59.53
48517;BME280;34310;51.904;4.256;2023-02-14T00:31:27;103531.31;;;15.60;59.65
48517;BME280;34310;51.904;4.256;2023-02-14T00:33:54;103524.25;;;15.59;59.58
48517;BME280;34310;51.904;4.256;2023-02-14T00:36:21;103531.16;;;15.59;59.55
48517;BME280;34310;51.904;4.256;2023-02-14T00:38:49;103524.84;;;15.57;59.48
48517;BME280;34310;51.904;4.256;2023-02-14T00:41:16;103523.16;;;15.57;59.47
48517;BME280;34310;51.904;4.256;2023-02-14T00:43:47;103517.81;;;15.56;59.56
48517;BME280;34310;51.904;4.256;2023-02-14T00:46:16;103515.06;;;15.54;59.49
48517;BME280;34310;51.904;4.256;2023-02-14T00:48:44;103519.38;;;15.54;59.61
48517;BME280;34310;51.904;4.256;2023-02-14T00:51:13;103509.72;;;15.53;59.42
48517;BME280;34310;51.904;4.256;2023-02-14T00:53:41;103508.81;;;15.52;59.52
48517;BME280;34310;51.904;4.256;2023-02-14T00:56:08;103505.28;;;15.52;59.68
48517;BME280;34310;51.904;4.256;2023-02-14T00:58:35;103505.16;;;15.50;59.62
48517;BME280;34310;51.904;4.256;2023-02-14T01:01:03;103504.09;;;15.48;59.45
48517;BME280;34310;51.904;4.256;2023-02-14T01:03:31;103502.25;;;15.47;59.50
48517;BME280;34310;51.904;4.256;2023-02-14T01:05:58;103501.34;;;15.46;59.42
48517;BME280;34310;51.904;4.256;2023-02-14T01:08:26;103503.81;;;15.45;59.38
48517;BME280;34310;51.904;4.256;2023-02-14T01:10:53;103501.22;;;15.45;59.31
48517;BME280;34310;51.904;4.256;2023-02-14T01:13:21;103496.78;;;15.44;59.51
48517;BME280;34310;51.904;4.256;2023-02-14T01:15:50;103497.56;;;15.43;59.42
48517;BME280;34310;51.904;4.256;2023-02-14T01:18:18;103500.94;;;15.42;59.58
48517;BME280;34310;51.904;4.256;2023-02-14T01:20:46;103499.09;;;15.41;59.52
48517;BME280;34310;51.904;4.256;2023-02-14T01:23:13;103500.66;;;15.39;59.59
48517;BME280;34310;51.904;4.256;2023-02-14T01:25:40;103495.44;;;15.39;59.48
48517;BME280;34310;51.904;4.256;2023-02-14T01:28:08;103494.38;;;15.37;59.56
48517;BME280;34310;51.904;4.256;2023-02-14T01:30:35;103495.16;;;15.36;59.58
48517;BME280;34310;51.904;4.256;2023-02-14T01:33:03;103490.72;;;15.35;59.49
48517;BME280;34310;51.904;4.256;2023-02-14T01:35:30;103490.72;;;15.35;59.60
48517;BME280;34310;51.904;4.256;2023-02-14T01:37:57;103487.97;;;15.33;59.52
48517;BME280;34310;51.904;4.256;2023-02-14T01:40:25;103493.00;;;15.32;59.60
48517;BME280;34310;51.904;4.256;2023-02-14T01:42:52;103497.47;;;15.33;59.61
48517;BME280;34310;51.904;4.256;2023-02-14T01:45:25;103485.97;;;15.31;59.57
48517;BME280;34310;51.904;4.256;2023-02-14T01:47:53;103486.75;;;15.30;59.56
48517;BME280;34310;51.904;4.256;2023-02-14T01:50:28;103488.28;;;15.28;59.56
48517;BME280;34310;51.904;4.256;2023-02-14T01:53:09;103488.28;;;15.28;59.53
48517;BME280;34310;51.904;4.256;2023-02-14T01:55:44;103490.75;;;15.26;59.65
48517;BME280;34310;51.904;4.256;2023-02-14T01:58:20;103503.63;;;15.25;59.55
48517;BME280;34310;51.904;4.256;2023-02-14T02:00:48;103500.09;;;15.24;59.53
48517;BME280;34310;51.904;4.256;2023-02-14T02:03:33;103499.19;;;15.24;59.60
48517;BME280;34310;51.904;4.256;2023-02-14T02:06:20;103486.03;;;15.22;59.67
48517;BME280;34310;51.904;4.256;2023-02-14T02:09:20;103497.22;;;15.21;59.72
48517;BME280;34310;51.904;4.256;2023-02-14T02:11:48;103495.38;;;15.20;59.58
48517;BME280;34310;51.904;4.256;2023-02-14T02:14:19;103494.47;;;15.19;59.66
48517;BME280;34310;51.904;4.256;2023-02-14T02:48:08;103476.13;;;15.18;59.95
48517;BME280;34310;51.904;4.256;2023-02-14T02:50:42;103464.78;;;15.17;59.83
48517;BME280;34310;51.904;4.256;2023-02-14T02:53:51;103470.13;;;15.19;60.00
48517;BME280;34310;51.904;4.256;2023-02-14T02:56:26;103467.53;;;15.19;59.93
48517;BME280;34310;51.904;4.256;2023-02-14T02:59:32;103470.13;;;15.19;59.94
48517;BME280;34310;51.904;4.256;2023-02-14T03:04:39;103466.75;;;15.20;60.04
48517;BME280;34310;51.904;4.256;2023-02-14T03:07:33;103469.34;;;15.20;59.89
48517;BME280;34310;51.904;4.256;2023-02-14T03:10:20;103471.06;;;15.19;60.00
48517;BME280;34310;51.904;4.256;2023-02-14T03:24:23;103462.47;;;15.21;59.82
48517;BME280;34310;51.904;4.256;2023-02-14T03:35:25;103464.28;;;15.22;59.71
48517;BME280;34310;51.904;4.256;2023-02-14T03:40:42;103462.47;;;15.21;59.75
48517;BME280;34310;51.904;4.256;2023-02-14T03:43:35;103450.38;;;15.21;59.82
48517;BME280;34310;51.904;4.256;2023-02-14T03:46:24;103460.78;;;15.21;59.78
48517;BME280;34310;51.904;4.256;2023-02-14T03:48:55;103459.88;;;15.21;59.88
48517;BME280;34310;51.904;4.256;2023-02-14T03:51:24;103458.03;;;15.19;59.82
48517;BME280;34310;51.904;4.256;2023-02-14T03:53:56;103456.34;;;15.20;59.71
48517;BME280;34310;51.904;4.256;2023-02-14T03:56:44;103464.16;;;15.20;59.81
48517;BME280;34310;51.904;4.256;2023-02-14T03:59:21;103454.53;;;15.19;59.89
48517;BME280;34310;51.904;4.256;2023-02-14T04:04:49;103450.09;;;15.18;59.76
48517;BME280;34310;51.904;4.256;2023-02-14T04:07:21;103450.84;;;15.17;59.74
48517;BME280;34310;51.904;4.256;2023-02-14T04:09:49;103450.09;;;15.18;59.94
48517;BME280;34310;51.904;4.256;2023-02-14T04:12:19;103453.47;;;15.17;59.84
48517;BME280;34310;51.904;4.256;2023-02-14T04:15:03;103452.56;;;15.16;59.78
48517;BME280;34310;51.904;4.256;2023-02-14T04:17:30;103451.63;;;15.16;59.70
48517;BME280;34310;51.904;4.256;2023-02-14T04:20:16;103451.63;;;15.16;59.68
48517;BME280;34310;51.904;4.256;2023-02-14T04:22:44;103451.63;;;15.16;59.75
48517;BME280;34310;51.904;4.256;2023-02-14T04:25:12;103448.88;;;15.14;59.81
48517;BME280;34310;51.904;4.256;2023-02-14T04:27:40;103446.28;;;15.14;59.72
48517;BME280;34310;51.904;4.256;2023-02-14T04:30:09;103445.38;;;15.14;59.70
48517;BME280;34310;51.904;4.256;2023-02-14T04:32:37;103440.94;;;15.13;59.83
48517;BME280;34310;51.904;4.256;2023-02-14T04:35:05;103446.16;;;15.13;59.86
48517;BME280;34310;51.904;4.256;2023-02-14T04:37:32;103446.16;;;15.13;59.72
48517;BME280;34310;51.904;4.256;2023-02-14T04:39:59;103443.53;;;15.13;59.62
48517;BME280;34310;51.904;4.256;2023-02-14T04:42:27;103448.59;;;15.11;59.78
48517;BME280;34310;51.904;4.256;2023-02-14T04:44:54;103450.16;;;15.09;59.63
48517;BME280;34310;51.904;4.256;2023-02-14T04:47:22;103450.28;;;15.11;59.76
48517;BME280;34310;51.904;4.256;2023-02-14T04:49:49;103445.72;;;15.08;59.76
48517;BME280;34310;51.904;4.256;2023-02-14T04:52:16;103445.72;;;15.08;59.66
48517;BME280;34310;51.904;4.256;2023-02-14T04:54:44;103453.53;;;15.08;59.84
48517;BME280;34310;51.904;4.256;2023-02-14T04:57:11;103455.97;;;15.07;59.65
48517;BME280;34310;51.904;4.256;2023-02-14T04:59:38;103457.66;;;15.06;59.68
48517;BME280;34310;51.904;4.256;2023-02-14T05:02:05;103452.31;;;15.05;59.69
48517;BME280;34310;51.904;4.256;2023-02-14T05:04:33;103466.25;;;15.05;59.67
48517;BME280;34310;51.904;4.256;2023-02-14T05:07:00;103458.13;;;15.02;59.61
48517;BME280;34310;51.904;4.256;2023-02-14T05:09:27;103451.09;;;15.01;60.02
48517;BME280;34310;51.904;4.256;2023-02-14T05:11:55;103455.38;;;15.01;60.29
48517;BME280;34310;51.904;4.256;2023-02-14T05:14:22;103448.50;;;15.01;60.70
48517;BME280;34310;51.904;4.256;2023-02-14T05:16:49;103448.50;;;15.01;60.76
48517;BME280;34310;51.904;4.256;2023-02-14T05:19:17;103443.28;;;15.01;60.62
48517;BME280;34310;51.904;4.256;2023-02-14T05:21:44;103446.81;;;15.02;60.72
48517;BME280;34310;51.904;4.256;2023-02-14T05:24:12;103440.81;;;15.03;60.74
48517;BME280;34310;51.904;4.256;2023-02-14T05:26:39;103435.63;;;15.03;60.59
48517;BME280;34310;51.904;4.256;2023-02-14T05:29:07;103440.81;;;15.03;60.72
48517;BME280;34310;51.904;4.256;2023-02-14T05:31:34;103433.03;;;15.03;60.40
48517;BME280;34310;51.904;4.256;2023-02-14T05:34:01;103440.81;;;15.03;60.41
48517;BME280;34310;51.904;4.256;2023-02-14T05:36:29;103434.88;;;15.04;60.22
48517;BME280;34310;51.904;4.256;2023-02-14T05:38:57;103435.63;;;15.03;60.38
48517;BME280;34310;51.904;4.256;2023-02-14T05:41:24;103431.34;;;15.03;60.30
48517;BME280;34310;51.904;4.256;2023-02-14T05:43:51;103434.88;;;15.04;60.33
48517;BME280;34310;51.904;4.256;2023-02-14T05:46:18;103438.41;;;15.04;60.17
48517;BME280;34310;51.904;4.256;2023-02-14T05:48:46;103442.69;;;15.04;60.31
48517;BME280;34310;51.904;4.256;2023-02-14T05:51:13;103437.63;;;15.05;60.43
48517;BME280;34310;51.904;4.256;2023-02-14T05:53:40;103434.13;;;15.05;60.22
48517;BME280;34310;51.904;4.256;2023-02-14T05:56:08;103435.03;;;15.05;60.36
48517;BME280;34310;51.904;4.256;2023-02-14T05:58:35;103431.66;;;15.06;60.22
48517;BME280;34310;51.904;4.256;2023-02-14T06:01:03;103437.63;;;15.05;60.13
48517;BME280;34310;51.904;4.256;2023-02-14T06:03:30;103438.41;;;15.04;60.15
48517;BME280;34310;51.904;4.256;2023-02-14T06:05:57;103438.53;;;15.06;60.13
48517;BME280;34310;51.904;4.256;2023-02-14T06:08:25;103436.72;;;15.05;60.06
48517;BME280;34310;51.904;4.256;2023-02-14T06:10:52;103437.78;;;15.07;60.12
48517;BME280;34310;51.904;4.256;2023-02-14T06:13:19;103434.25;;;15.06;60.03
48517;BME280;34310;51.904;4.256;2023-02-14T06:15:47;103441.16;;;15.06;60.03
48517;BME280;34310;51.904;4.256;2023-02-14T06:18:14;103436.84;;;15.06;60.01
48517;BME280;34310;51.904;4.256;2023-02-14T06:20:41;103434.25;;;15.06;60.03
48517;BME280;34310;51.904;4.256;2023-02-14T06:23:09;103439.59;;;15.08;59.87
48517;BME280;34310;51.904;4.256;2023-02-14T06:25:37;103440.38;;;15.07;59.87
48517;BME280;34310;51.904;4.256;2023-02-14T06:28:04;103442.19;;;15.08;59.88
48517;BME280;34310;51.904;4.256;2023-02-14T06:30:32;103441.28;;;15.07;59.94
48517;BME280;34310;51.904;4.256;2023-02-14T06:33:00;103434.25;;;15.06;59.81
48517;BME280;34310;51.904;4.256;2023-02-14T06:35:27;103442.06;;;15.06;59.81
48517;BME280;34310;51.904;4.256;2023-02-14T06:37:54;103443.75;;;15.06;59.73
48517;BME280;34310;51.904;4.256;2023-02-14T06:40:22;103433.34;;;15.06;59.81
48517;BME280;34310;51.904;4.256;2023-02-14T06:42:50;103441.16;;;15.06;59.75
48517;BME280;34310;51.904;4.256;2023-02-14T06:45:17;103448.03;;;15.05;59.73
48517;BME280;34310;51.904;4.256;2023-02-14T06:47:45;103446.34;;;15.06;59.55
48517;BME280;34310;51.904;4.256;2023-02-14T06:50:12;103442.84;;;15.05;59.69
48517;BME280;34310;51.904;4.256;2023-02-14T06:52:39;103439.13;;;15.03;59.55
48517;BME280;34310;51.904;4.256;2023-02-14T06:55:09;103449.53;;;15.03;59.69
48517;BME280;34310;51.904;4.256;2023-02-14T06:57:39;103455.69;;;15.04;59.72
48517;BME280;34310;51.904;4.256;2023-02-14T07:00:07;103454.75;;;15.03;59.62
48517;BME280;34310;51.904;4.256;2023-02-14T07:02:34;103452.91;;;15.02;59.66
48517;BME280;34310;51.904;4.256;2023-02-14T07:05:02;103463.31;;;15.02;59.63
48517;BME280;34310;51.904;4.256;2023-02-14T07:07:29;103455.53;;;15.02;59.64
48517;BME280;34310;51.904;4.256;2023-02-14T07:09:56;103461.50;;;15.01;59.54
48517;BME280;34310;51.904;4.256;2023-02-14T07:12:24;103452.00;;;15.02;59.49
48517;BME280;34310;51.904;4.256;2023-02-14T07:14:51;103444.97;;;15.01;59.57
48517;BME280;34310;51.904;4.256;2023-02-14T07:17:18;103453.56;;;15.00;59.63
48517;BME280;34310;51.904;4.256;2023-02-14T07:19:45;103450.03;;;14.99;59.51
48517;BME280;34310;51.904;4.256;2023-02-14T07:22:13;103457.84;;;14.99;59.55
48517;BME280;34310;51.904;4.256;2023-02-14T07:24:40;103456.94;;;14.99;59.54
48517;BME280;34310;51.904;4.256;2023-02-14T07:27:08;103456.16;;;15.00;59.51
48517;BME280;34310;51.904;4.256;2023-02-14T07:29:35;103459.53;;;14.99;59.73
48517;BME280;34310;51.904;4.256;2023-02-14T07:32:03;103456.78;;;14.97;59.64
48517;BME280;34310;51.904;4.256;2023-02-14T07:34:31;103457.56;;;14.96;59.63
48517;BME280;34310;51.904;4.256;2023-02-14T07:36:59;103458.31;;;14.95;59.75
48517;BME280;34310;51.904;4.256;2023-02-14T07:39:27;103458.31;;;14.95;59.64
48517;BME280;34310;51.904;4.256;2023-02-14T07:41:54;103452.97;;;14.94;59.68
48517;BME280;34310;51.904;4.256;2023-02-14T07:44:21;103447.78;;;14.94;59.73
48517;BME280;34310;51.904;4.256;2023-02-14T07:46:49;103447.78;;;14.94;60.01
48517;BME280;34310;51.904;4.256;2023-02-14T07:49:16;103451.28;;;14.94;60.02
48517;BME280;34310;51.904;4.256;2023-02-14T07:51:43;103451.28;;;14.94;59.89
48517;BME280;34310;51.904;4.256;2023-02-14T07:54:11;103450.53;;;14.95;60.21
48517;BME280;34310;51.904;4.256;2023-02-14T07:56:38;103446.09;;;14.94;60.10
48517;BME280;34310;51.904;4.256;2023-02-14T07:59:05;103457.41;;;14.95;60.35
48517;BME280;34310;51.904;4.256;2023-02-14T08:01:33;103454.81;;;14.95;60.16
48517;BME280;34310;51.904;4.256;2023-02-14T08:04:00;103459.25;;;14.96;60.36
48517;BME280;34310;51.904;4.256;2023-02-14T08:06:27;103459.25;;;14.96;60.32
48517;BME280;34310;51.904;4.256;2023-02-14T08:08:55;103455.72;;;14.95;60.25
48517;BME280;34310;51.904;4.256;2023-02-14T08:11:22;103447.00;;;14.95;60.34
48517;BME280;34310;51.904;4.256;2023-02-14T08:14:08;103451.44;;;14.96;60.38
48517;BME280;34310;51.904;4.256;2023-02-14T08:16:35;103449.75;;;14.96;60.21
48517;BME280;34310;51.904;4.256;2023-02-14T08:19:04;103447.00;;;14.95;60.72
48517;BME280;34310;51.904;4.256;2023-02-14T08:21:31;103456.63;;;14.96;60.38
48517;BME280;34310;51.904;4.256;2023-02-14T08:23:59;103447.16;;;14.96;60.38
48517;BME280;34310;51.904;4.256;2023-02-14T08:26:26;103451.56;;;14.97;60.04
48517;BME280;34310;51.904;4.256;2023-02-14T08:28:53;103462.13;;;14.99;60.11
48517;BME280;34310;51.904;4.256;2023-02-14T08:31:23;103454.31;;;14.99;60.12
48517;BME280;34310;51.904;4.256;2023-02-14T08:34:01;103455.22;;;14.99;59.94
48517;BME280;34310;51.904;4.256;2023-02-14T08:36:29;103458.75;;;15.00;59.99
48517;BME280;34310;51.904;4.256;2023-02-14T08:38:56;103463.97;;;15.00;60.04
48517;BME280;34310;51.904;4.256;2023-02-14T08:41:23;103457.97;;;15.01;60.04
48517;BME280;34310;51.904;4.256;2023-02-14T08:43:51;103451.09;;;15.01;60.35
48517;BME280;34310;51.904;4.256;2023-02-14T08:46:18;103447.72;;;15.02;60.32
48517;BME280;34310;51.904;4.256;2023-02-14T08:48:45;103458.13;;;15.02;60.63
48517;BME280;34310;51.904;4.256;2023-02-14T08:51:14;103453.09;;;15.04;60.80
48517;BME280;34310;51.904;4.256;2023-02-14T08:53:42;103448.63;;;15.03;60.89
48517;BME280;34310;51.904;4.256;2023-02-14T08:56:12;103456.63;;;15.04;60.87
48517;BME280;34310;51.904;4.256;2023-02-14T08:58:40;103446.94;;;15.03;60.83
48517;BME280;34310;51.904;4.256;2023-02-14T09:01:17;103454.94;;;15.05;60.96
48517;BME280;34310;51.904;4.256;2023-02-14T09:03:45;103444.66;;;15.06;60.91
48517;BME280;34310;51.904;4.256;2023-02-14T09:06:14;103446.34;;;15.06;60.76
48517;BME280;34310;51.904;4.256;2023-02-14T09:08:44;103450.00;;;15.08;60.66
48517;BME280;34310;51.904;4.256;2023-02-14T09:11:18;103448.19;;;15.07;60.51
48517;BME280;34310;51.904;4.256;2023-02-14T09:13:48;103447.41;;;15.08;60.69
48517;BME280;34310;51.904;4.256;2023-02-14T09:16:18;103450.94;;;15.08;60.49
48517;BME280;34310;51.904;4.256;2023-02-14T09:18:47;103444.81;;;15.08;60.17
48517;BME280;34310;51.904;4.256;2023-02-14T09:21:18;103452.91;;;15.11;59.96
48517;BME280;34310;51.904;4.256;2023-02-14T09:23:46;103448.47;;;15.10;59.76
48517;BME280;34310;51.904;4.256;2023-02-14T09:26:15;103443.25;;;15.10;59.79
48517;BME280;34310;51.904;4.256;2023-02-14T09:28:44;103448.59;;;15.11;59.82
48517;BME280;34310;51.904;4.256;2023-02-14T09:33:44;103445.22;;;15.12;60.00
48517;BME280;34310;51.904;4.256;2023-02-14T09:36:11;103452.25;;;15.13;60.11
48517;BME280;34310;51.904;4.256;2023-02-14T09:38:58;103444.59;;;15.15;60.12
48517;BME280;34310;51.904;4.256;2023-02-14T09:44:01;103450.72;;;15.15;60.08
48517;BME280;34310;51.904;4.256;2023-02-14T09:46:39;103447.34;;;15.16;60.12
48517;BME280;34310;51.904;4.256;2023-02-14T09:49:13;103450.09;;;15.18;60.22
48517;BME280;34310;51.904;4.256;2023-02-14T09:51:47;103451.00;;;15.18;60.13
48517;BME280;34310;51.904;4.256;2023-02-14T09:54:20;103449.31;;;15.19;60.28
48517;BME280;34310;51.904;4.256;2023-02-14T09:57:20;103445.94;;;15.20;60.12
48517;BME280;34310;51.904;4.256;2023-02-14T09:59:54;103445.16;;;15.21;60.25
48517;BME280;34310;51.904;4.256;2023-02-14T10:05:25;103453.13;;;15.23;60.29
48517;BME280;34310;51.904;4.256;2023-02-14T10:10:33;103450.66;;;15.24;60.44
48517;BME280;34310;51.904;4.256;2023-02-14T10:16:21;103443.91;;;15.26;60.42
48517;BME280;34310;51.904;4.256;2023-02-14T10:19:00;103452.63;;;15.27;60.44
48517;BME280;34310;51.904;4.256;2023-02-14T10:24:24;103444.03;;;15.28;60.42
48517;BME280;34310;51.904;4.256;2023-02-14T10:27:04;103438.97;;;15.29;60.32
48517;BME280;34310;51.904;4.256;2023-02-14T10:29:38;103444.19;;;15.29;60.43
48517;BME280;34310;51.904;4.256;2023-02-14T10:32:14;103444.31;;;15.31;60.46
48517;BME280;34310;51.904;4.256;2023-02-14T10:34:50;103432.22;;;15.31;60.29
48517;BME280;34310;51.904;4.256;2023-02-14T10:38:12;103435.00;;;15.33;60.30
48517;BME280;34310;51.904;4.256;2023-02-14T10:40:55;103435.13;;;15.34;60.36
48517;BME280;34310;51.904;4.256;2023-02-14T10:46:37;103422.28;;;15.36;60.45
48517;BME280;34310;51.904;4.256;2023-02-14T10:52:28;103423.47;;;15.39;60.59
48517;BME280;34310;51.904;4.256;2023-02-14T10:55:00;103426.06;;;15.39;60.47
48517;BME280;34310;51.904;4.256;2023-02-14T10:57:37;103421.00;;;15.41;60.48
48517;BME280;34310;51.904;4.256;2023-02-14T11:00:15;103419.31;;;15.41;60.54
48517;BME280;34310;51.904;4.256;2023-02-14T11:02:45;103416.84;;;15.43;60.45
48517;BME280;34310;51.904;4.256;2023-02-14T11:05:43;103410.88;;;15.44;60.57
48517;BME280;34310;51.904;4.256;2023-02-14T11:08:25;103407.47;;;15.45;60.38
48517;BME280;34310;51.904;4.256;2023-02-14T11:10:59;103403.19;;;15.45;60.56
48517;BME280;34310;51.904;4.256;2023-02-14T11:13:37;103405.16;;;15.48;60.60
48517;BME280;34310;51.904;4.256;2023-02-14T11:16:10;103399.03;;;15.47;60.45
48517;BME280;34310;51.904;4.256;2023-02-14T11:18:39;103398.41;;;15.50;60.50
48517;BME280;34310;51.904;4.256;2023-02-14T11:21:12;103397.63;;;15.51;60.54
48517;BME280;34310;51.904;4.256;2023-02-14T11:23:43;103398.53;;;15.52;60.56
48517;BME280;34310;51.904;4.256;2023-02-14T11:26:23;103393.47;;;15.53;60.70
48517;BME280;34310;51.904;4.256;2023-02-14T11:28:57;103385.78;;;15.55;60.52
48517;BME280;34310;51.904;4.256;2023-02-14T11:31:36;103388.69;;;15.58;60.69
48517;BME280;34310;51.904;4.256;2023-02-14T11:34:22;103380.88;;;15.58;60.60
48517;BME280;34310;51.904;4.256;2023-02-14T11:36:50;103381.94;;;15.60;60.55
48517;BME280;34310;51.904;4.256;2023-02-14T11:39:30;103375.97;;;15.61;60.61
48517;BME280;34310;51.904;4.256;2023-02-14T11:42:01;103366.63;;;15.63;60.70
48517;BME280;34310;51.904;4.256;2023-02-14T11:44:32;103369.38;;;15.64;60.69
48517;BME280;34310;51.904;4.256;2023-02-14T11:47:26;103366.00;;;15.65;60.53
48517;BME280;34310;51.904;4.256;2023-02-14T11:50:00;103363.53;;;15.67;60.72
48517;BME280;34310;51.904;4.256;2023-02-14T11:52:28;103351.56;;;15.69;60.72
48517;BME280;34310;51.904;4.256;2023-02-14T11:54:57;103345.56;;;15.70;60.64
48517;BME280;34310;51.904;4.256;2023-02-14T11:57:32;103355.34;;;15.72;60.53
48517;BME280;34310;51.904;4.256;2023-02-14T12:00:03;103351.06;;;15.73;60.51
48517;BME280;34310;51.904;4.256;2023-02-14T12:02:39;103357.31;;;15.75;60.53
48517;BME280;34310;51.904;4.256;2023-02-14T12:05:22;103352.22;;;15.76;60.55
48517;BME280;34310;51.904;4.256;2023-02-14T12:08:00;103346.25;;;15.77;60.63
48517;BME280;34310;51.904;4.256;2023-02-14T12:10:32;103335.06;;;15.78;60.58
48517;BME280;34310;51.904;4.256;2023-02-14T12:13:23;103334.41;;;15.81;60.74
48517;BME280;34310;51.904;4.256;2023-02-14T12:15:49;103333.63;;;15.82;60.60
48517;BME280;34310;51.904;4.256;2023-02-14T12:24:15;103320.22;;;15.88;60.70
48517;BME280;34310;51.904;4.256;2023-02-14T12:27:24;103313.47;;;15.90;60.66
48517;BME280;34310;51.904;4.256;2023-02-14T12:30:01;103315.31;;;15.91;60.70
48517;BME280;34310;51.904;4.256;2023-02-14T12:32:31;103303.22;;;15.91;60.66
48517;BME280;34310;51.904;4.256;2023-02-14T12:57:42;103286.69;;;16.11;60.82
48517;BME280;34310;51.904;4.256;2023-02-14T13:00:18;103288.53;;;16.12;60.87
48517;BME280;34310;51.904;4.256;2023-02-14T13:03:00;103278.22;;;16.14;60.82
48517;BME280;34310;51.904;4.256;2023-02-14T13:05:53;103284.47;;;16.16;60.83
48517;BME280;34310;51.904;4.256;2023-02-14T13:17:22;103274.75;;;16.23;60.86
48517;BME280;34310;51.904;4.256;2023-02-14T13:20:04;103271.34;;;16.24;60.82
48517;BME280;34310;51.904;4.256;2023-02-14T13:22:39;103265.50;;;16.27;60.91
48517;BME280;34310;51.904;4.256;2023-02-14T13:25:30;103266.53;;;16.29;60.86
48517;BME280;34310;51.904;4.256;2023-02-14T13:28:03;103267.56;;;16.31;60.75
48517;BME280;34310;51.904;4.256;2023-02-14T13:30:34;103273.84;;;16.33;60.83
48517;BME280;34310;51.904;4.256;2023-02-14T13:33:07;103275.78;;;16.35;60.83
48517;BME280;34310;51.904;4.256;2023-02-14T13:35:35;103267.19;;;16.36;60.67
48517;BME280;34310;51.904;4.256;2023-02-14T13:38:06;103268.34;;;16.40;60.75
48517;BME280;34310;51.904;4.256;2023-02-14T13:40:38;103262.50;;;16.42;60.73
48517;BME280;34310;51.904;4.256;2023-02-14T13:43:06;103260.78;;;16.43;60.78
48517;BME280;34310;51.904;4.256;2023-02-14T13:50:47;103233.44;;;16.48;60.90
48517;BME280;34310;51.904;4.256;2023-02-14T13:53:47;103244.91;;;16.50;60.66
48517;BME280;34310;51.904;4.256;2023-02-14T13:58:52;103238.13;;;16.52;60.58
48517;BME280;34310;51.904;4.256;2023-02-14T14:04:08;103240.22;;;16.56;60.51
48517;BME280;34310;51.904;4.256;2023-02-14T14:07:15;103241.38;;;16.60;60.54
48517;BME280;34310;51.904;4.256;2023-02-14T14:17:35;103243.75;;;16.67;60.47
48517;BME280;34310;51.904;4.256;2023-02-14T14:22:55;103239.69;;;16.70;60.65
48517;BME280;34310;51.904;4.256;2023-02-14T14:25:38;103238.13;;;16.72;60.40
48517;BME280;34310;51.904;4.256;2023-02-14T14:28:12;103227.81;;;16.74;60.41
48517;BME280;34310;51.904;4.256;2023-02-14T14:30:44;103224.44;;;16.75;60.35
48517;BME280;34310;51.904;4.256;2023-02-14T14:33:25;103221.94;;;16.77;60.40
48517;BME280;34310;51.904;4.256;2023-02-14T14:36:04;103220.28;;;16.77;60.35
48517;BME280;34310;51.904;4.256;2023-02-14T14:38:44;103221.19;;;16.78;60.34
48517;BME280;34310;51.904;4.256;2023-02-14T14:41:12;103226.53;;;16.79;60.23
48517;BME280;34310;51.904;4.256;2023-02-14T14:43:40;103219.63;;;16.80;60.30
48517;BME280;34310;51.904;4.256;2023-02-14T14:46:10;103222.34;;;16.81;60.30
48517;BME280;34310;51.904;4.256;2023-02-14T14:51:16;103224.19;;;16.82;60.09
48517;BME280;34310;51.904;4.256;2023-02-14T14:54:02;103233.84;;;16.83;60.16
48517;BME280;34310;51.904;4.256;2023-02-14T14:56:37;103224.31;;;16.84;60.09
48517;BME280;34310;51.904;4.256;2023-02-14T14:59:28;103217.25;;;16.83;59.97
48517;BME280;34310;51.904;4.256;2023-02-14T15:01:56;103224.31;;;16.84;59.80
48517;BME280;34310;51.904;4.256;2023-02-14T15:04:32;103223.53;;;16.85;59.98
48517;BME280;34310;51.904;4.256;2023-02-14T15:07:26;103222.63;;;16.84;59.85
48517;BME280;34310;51.904;4.256;2023-02-14T15:09:54;103215.56;;;16.83;60.00
48517;BME280;34310;51.904;4.256;2023-02-14T15:12:23;103215.69;;;16.85;59.83
48517;BME280;34310;51.904;4.256;2023-02-14T15:15:15;103219.22;;;16.85;59.94
48517;BME280;34310;51.904;4.256;2023-02-14T15:17:43;103217.38;;;16.84;59.91
48517;BME280;34310;51.904;4.256;2023-02-14T15:20:20;103218.31;;;16.85;59.67
48517;BME280;34310;51.904;4.256;2023-02-14T15:22:50;103213.09;;;16.85;59.69
48517;BME280;34310;51.904;4.256;2023-02-14T15:25:53;103204.34;;;16.84;59.78
48517;BME280;34310;51.904;4.256;2023-02-14T15:28:26;103209.56;;;16.84;59.77
48517;BME280;34310;51.904;4.256;2023-02-14T15:30:59;103206.94;;;16.84;59.77
48517;BME280;34310;51.904;4.256;2023-02-14T15:33:29;103209.69;;;16.86;59.82
48517;BME280;34310;51.904;4.256;2023-02-14T15:36:02;103201.75;;;16.84;59.55
48517;BME280;34310;51.904;4.256;2023-02-14T15:38:30;103199.13;;;16.84;59.61
48517;BME280;34310;51.904;4.256;2023-02-14T15:41:00;103202.66;;;16.85;59.50